sensor_id;sensor_type;location;lat;lon;timestamp;temperature;humidity
44855;DHT22;30591;48.228;16.398;2022-11-15T00:03:56;6.20;99.90
44855;DHT22;30591;48.228;16.398;2022-11-15T00:06:48;6.20;99.90
44855;DHT22;30591;48.228;16.398;2022-11-15T00:09:34;6.20;99.90
44855;DHT22;30591;48.228;16.398;2022-11-15T00:12:19;6.20;99.90
44855;DHT22;30591;48.228;16.398;2022-11-15T00:15:06;6.20;99.90
44855;DHT22;30591;48.228;16.398;2022-11-15T00:18:13;6.30;99.90
44855;DHT22;30591;48.228;16.398;2022-11-15T00:21:04;6.30;99.90
44855;DHT22;30591;48.228;16.398;2022-11-15T00:24:23;6.20;99.90
44855;DHT22;30591;48.228;16.398;2022-11-15T00:27:10;6.30;99.90
44855;DHT22;30591;48.228;16.398;2022-11-15T00:29:56;6.30;99.90
44855;DHT22;30591;48.228;16.398;2022-11-15T00:32:44;6.30;99.90
44855;DHT22;30591;48.228;16.398;2022-11-15T00:35:49;6.20;99.90
44855;DHT22;30591;48.228;16.398;2022-11-15T00:38:38;6.20;99.90
44855;DHT22;30591;48.228;16.398;2022-11-15T00:49:12;6.20;99.90
44855;DHT22;30591;48.228;16.398;2022-11-15T00:56:17;6.20;99.90
44855;DHT22;30591;48.228;16.398;2022-11-15T01:03:28;6.20;99.90
44855;DHT22;30591;48.228;16.398;2022-11-15T01:10:25;6.20;99.90
44855;DHT22;30591;48.228;16.398;2022-11-15T01:13:11;6.20;99.90
44855;DHT22;30591;48.228;16.398;2022-11-15T01:16:16;6.10;99.90
44855;DHT22;30591;48.228;16.398;2022-11-15T01:19:03;6.20;99.90
44855;DHT22;30591;48.228;16.398;2022-11-15T01:21:51;6.20;99.90
44855;DHT22;30591;48.228;16.398;2022-11-15T01:24:39;6.20;99.90
44855;DHT22;30591;48.228;16.398;2022-11-15T01:27:29;6.20;99.90
44855;DHT22;30591;48.228;16.398;2022-11-15T01:30:15;6.20;99.90
44855;DHT22;30591;48.228;16.398;2022-11-15T01:33:06;6.20;99.90
44855;DHT22;30591;48.228;16.398;2022-11-15T01:35:56;6.20;99.90
44855;DHT22;30591;48.228;16.398;2022-11-15T01:39:02;6.20;99.90
44855;DHT22;30591;48.228;16.398;2022-11-15T01:41:49;6.20;99.90
44855;DHT22;30591;48.228;16.398;2022-11-15T01:45:00;6.20;99.90
44855;DHT22;30591;48.228;16.398;2022-11-15T01:47:54;6.20;99.90
44855;DHT22;30591;48.228;16.398;2022-11-15T01:54:33;6.20;99.90
44855;DHT22;30591;48.228;16.398;2022-11-15T01:57:41;6.20;99.90
44855;DHT22;30591;48.228;16.398;2022-11-15T02:00:31;6.20;99.90
44855;DHT22;30591;48.228;16.398;2022-11-15T02:03:50;6.20;99.90
44855;DHT22;30591;48.228;16.398;2022-11-15T02:06:41;6.20;99.90
44855;DHT22;30591;48.228;16.398;2022-11-15T02:09:50;6.20;99.90
44855;DHT22;30591;48.228;16.398;2022-11-15T02:12:37;6.20;99.90
44855;DHT22;30591;48.228;16.398;2022-11-15T02:15:43;6.20;99.90
44855;DHT22;30591;48.228;16.398;2022-11-15T02:18:41;6.20;99.90
44855;DHT22;30591;48.228;16.398;2022-11-15T02:38:46;6.20;99.90
44855;DHT22;30591;48.228;16.398;2022-11-15T02:41:49;6.20;99.90
44855;DHT22;30591;48.228;16.398;2022-11-15T02:44:40;6.20;99.90
44855;DHT22;30591;48.228;16.398;2022-11-15T02:47:43;6.20;99.90
44855;DHT22;30591;48.228;16.398;2022-11-15T02:50:35;6.20;99.90
44855;DHT22;30591;48.228;16.398;2022-11-15T02:53:28;6.30;99.90
44855;DHT22;30591;48.228;16.398;2022-11-15T02:56:14;6.30;99.90
44855;DHT22;30591;48.228;16.398;2022-11-15T02:59:31;6.30;99.90
44855;DHT22;30591;48.228;16.398;2022-11-15T03:06:15;6.30;99.90
44855;DHT22;30591;48.228;16.398;2022-11-15T03:11:50;6.20;99.90
44855;DHT22;30591;48.228;16.398;2022-11-15T03:14:55;6.20;99.90
44855;DHT22;30591;48.228;16.398;2022-11-15T03:18:09;6.20;99.90
44855;DHT22;30591;48.228;16.398;2022-11-15T03:21:04;6.20;99.90
44855;DHT22;30591;48.228;16.398;2022-11-15T03:24:16;6.20;99.90
44855;DHT22;30591;48.228;16.398;2022-11-15T03:27:12;6.20;99.90
44855;DHT22;30591;48.228;16.398;2022-11-15T03:30:03;6.30;99.90
44855;DHT22;30591;48.228;16.398;2022-11-15T03:32:56;6.30;99.90
44855;DHT22;30591;48.228;16.398;2022-11-15T03:35:59;6.20;99.90
44855;DHT22;30591;48.228;16.398;2022-11-15T03:38:54;6.10;99.90
44855;DHT22;30591;48.228;16.398;2022-11-15T03:42:22;6.10;99.90
44855;DHT22;30591;48.228;16.398;2022-11-15T03:48:16;6.00;99.90
44855;DHT22;30591;48.228;16.398;2022-11-15T03:51:11;6.00;99.90
44855;DHT22;30591;48.228;16.398;2022-11-15T03:54:09;6.00;99.90
44855;DHT22;30591;48.228;16.398;2022-11-15T03:56:58;6.00;99.90
44855;DHT22;30591;48.228;16.398;2022-11-15T04:00:07;5.90;99.90
44855;DHT22;30591;48.228;16.398;2022-11-15T04:02:57;5.90;99.90
44855;DHT22;30591;48.228;16.398;2022-11-15T04:06:16;5.90;99.90
44855;DHT22;30591;48.228;16.398;2022-11-15T04:09:04;5.90;99.90
44855;DHT22;30591;48.228;16.398;2022-11-15T04:12:15;5.90;99.90
44855;DHT22;30591;48.228;16.398;2022-11-15T04:15:21;5.90;99.90
44855;DHT22;30591;48.228;16.398;2022-11-15T04:18:25;5.90;99.90
44855;DHT22;30591;48.228;16.398;2022-11-15T04:21:12;5.90;99.90
44855;DHT22;30591;48.228;16.398;2022-11-15T04:24:31;5.90;99.90
44855;DHT22;30591;48.228;16.398;2022-11-15T04:27:17;5.90;99.90
44855;DHT22;30591;48.228;16.398;2022-11-15T04:30:15;5.80;99.90
44855;DHT22;30591;48.228;16.398;2022-11-15T04:33:02;5.90;99.90
44855;DHT22;30591;48.228;16.398;2022-11-15T04:35:51;5.80;99.90
44855;DHT22;30591;48.228;16.398;2022-11-15T04:38:58;5.80;99.90
44855;DHT22;30591;48.228;16.398;2022-11-15T04:41:50;5.80;99.90
44855;DHT22;30591;48.228;16.398;2022-11-15T04:44:36;5.80;99.90
44855;DHT22;30591;48.228;16.398;2022-11-15T04:47:30;5.90;99.90
44855;DHT22;30591;48.228;16.398;2022-11-15T04:50:17;5.80;99.90
44855;DHT22;30591;48.228;16.398;2022-11-15T04:53:13;5.80;99.90
44855;DHT22;30591;48.228;16.398;2022-11-15T04:56:00;5.90;99.90
44855;DHT22;30591;48.228;16.398;2022-11-15T04:58:51;5.90;99.90
44855;DHT22;30591;48.228;16.398;2022-11-15T05:01:41;5.80;99.90
44855;DHT22;30591;48.228;16.398;2022-11-15T05:04:29;5.90;99.90
44855;DHT22;30591;48.228;16.398;2022-11-15T05:07:15;5.90;99.90
44855;DHT22;30591;48.228;16.398;2022-11-15T05:10:08;5.90;99.90
44855;DHT22;30591;48.228;16.398;2022-11-15T05:13:19;5.90;99.90
44855;DHT22;30591;48.228;16.398;2022-11-15T05:16:20;5.90;99.90
44855;DHT22;30591;48.228;16.398;2022-11-15T05:19:06;5.90;99.90
44855;DHT22;30591;48.228;16.398;2022-11-15T05:21:53;5.90;99.90
44855;DHT22;30591;48.228;16.398;2022-11-15T05:24:42;5.90;99.90
44855;DHT22;30591;48.228;16.398;2022-11-15T05:27:28;5.90;99.90
44855;DHT22;30591;48.228;16.398;2022-11-15T05:30:16;5.80;99.90
44855;DHT22;30591;48.228;16.398;2022-11-15T05:33:21;5.90;99.90
44855;DHT22;30591;48.228;16.398;2022-11-15T05:36:38;5.90;99.90
44855;DHT22;30591;48.228;16.398;2022-11-15T05:39:40;5.90;99.90
44855;DHT22;30591;48.228;16.398;2022-11-15T05:42:29;5.90;99.90
44855;DHT22;30591;48.228;16.398;2022-11-15T05:45:22;6.00;99.90
44855;DHT22;30591;48.228;16.398;2022-11-15T05:48:14;5.90;99.90
44855;DHT22;30591;48.228;16.398;2022-11-15T05:51:02;5.90;99.90
44855;DHT22;30591;48.228;16.398;2022-11-15T05:53:50;6.00;99.90
44855;DHT22;30591;48.228;16.398;2022-11-15T05:56:55;6.00;99.90
44855;DHT22;30591;48.228;16.398;2022-11-15T05:59:41;5.90;99.90
44855;DHT22;30591;48.228;16.398;2022-11-15T06:02:50;6.00;99.90
44855;DHT22;30591;48.228;16.398;2022-11-15T06:05:36;6.00;99.90
44855;DHT22;30591;48.228;16.398;2022-11-15T06:08:31;6.00;99.90
44855;DHT22;30591;48.228;16.398;2022-11-15T06:11:17;6.00;99.90
44855;DHT22;30591;48.228;16.398;2022-11-15T06:14:08;6.00;99.90
44855;DHT22;30591;48.228;16.398;2022-11-15T06:16:55;6.00;99.90
44855;DHT22;30591;48.228;16.398;2022-11-15T06:19:53;6.00;99.90
44855;DHT22;30591;48.228;16.398;2022-11-15T06:22:42;6.00;99.90
44855;DHT22;30591;48.228;16.398;2022-11-15T06:25:32;6.00;99.90
44855;DHT22;30591;48.228;16.398;2022-11-15T06:28:20;6.00;99.90
44855;DHT22;30591;48.228;16.398;2022-11-15T06:31:09;6.00;99.90
44855;DHT22;30591;48.228;16.398;2022-11-15T06:33:57;6.00;99.90
44855;DHT22;30591;48.228;16.398;2022-11-15T06:36:42;6.00;99.90
44855;DHT22;30591;48.228;16.398;2022-11-15T06:39:28;6.00;99.90
44855;DHT22;30591;48.228;16.398;2022-11-15T06:42:16;6.00;99.90
44855;DHT22;30591;48.228;16.398;2022-11-15T06:45:08;6.00;99.90
44855;DHT22;30591;48.228;16.398;2022-11-15T06:47:53;6.00;99.90
44855;DHT22;30591;48.228;16.398;2022-11-15T06:50:40;6.00;99.90
44855;DHT22;30591;48.228;16.398;2022-11-15T06:53:37;6.00;99.90
44855;DHT22;30591;48.228;16.398;2022-11-15T06:56:23;6.00;99.90
44855;DHT22;30591;48.228;16.398;2022-11-15T06:59:10;6.00;99.90
44855;DHT22;30591;48.228;16.398;2022-11-15T07:01:58;6.00;99.90
44855;DHT22;30591;48.228;16.398;2022-11-15T07:04:50;6.00;99.90
44855;DHT22;30591;48.228;16.398;2022-11-15T07:07:37;6.00;99.90
44855;DHT22;30591;48.228;16.398;2022-11-15T07:10:27;6.00;99.90
44855;DHT22;30591;48.228;16.398;2022-11-15T07:13:15;6.00;99.90
44855;DHT22;30591;48.228;16.398;2022-11-15T07:16:16;6.00;99.90
44855;DHT22;30591;48.228;16.398;2022-11-15T07:19:27;6.00;99.90
44855;DHT22;30591;48.228;16.398;2022-11-15T07:22:45;6.00;99.90
44855;DHT22;30591;48.228;16.398;2022-11-15T07:25:36;6.10;99.90
44855;DHT22;30591;48.228;16.398;2022-11-15T07:31:50;6.10;99.90
44855;DHT22;30591;48.228;16.398;2022-11-15T07:34:39;6.10;99.90
44855;DHT22;30591;48.228;16.398;2022-11-15T07:37:32;6.10;99.90
44855;DHT22;30591;48.228;16.398;2022-11-15T07:40:45;6.10;99.90
44855;DHT22;30591;48.228;16.398;2022-11-15T07:43:33;6.10;99.90
44855;DHT22;30591;48.228;16.398;2022-11-15T07:46:20;6.20;99.90
44855;DHT22;30591;48.228;16.398;2022-11-15T07:49:29;6.20;99.90
44855;DHT22;30591;48.228;16.398;2022-11-15T07:52:16;6.10;99.90
44855;DHT22;30591;48.228;16.398;2022-11-15T07:55:03;6.20;99.90
44855;DHT22;30591;48.228;16.398;2022-11-15T07:57:50;6.20;99.90
44855;DHT22;30591;48.228;16.398;2022-11-15T08:00:39;6.20;99.90
44855;DHT22;30591;48.228;16.398;2022-11-15T08:03:26;6.20;99.90
44855;DHT22;30591;48.228;16.398;2022-11-15T08:06:20;6.20;99.90
44855;DHT22;30591;48.228;16.398;2022-11-15T08:09:06;6.30;99.90
44855;DHT22;30591;48.228;16.398;2022-11-15T08:11:52;6.30;99.90
44855;DHT22;30591;48.228;16.398;2022-11-15T08:14:38;6.30;99.90
44855;DHT22;30591;48.228;16.398;2022-11-15T08:17:30;6.40;99.90
44855;DHT22;30591;48.228;16.398;2022-11-15T08:20:19;6.40;99.90
44855;DHT22;30591;48.228;16.398;2022-11-15T08:23:07;6.40;99.90
44855;DHT22;30591;48.228;16.398;2022-11-15T08:25:59;6.40;99.90
44855;DHT22;30591;48.228;16.398;2022-11-15T08:29:00;6.50;99.90
44855;DHT22;30591;48.228;16.398;2022-11-15T08:31:46;6.50;99.90
44855;DHT22;30591;48.228;16.398;2022-11-15T08:34:33;6.50;99.90
44855;DHT22;30591;48.228;16.398;2022-11-15T08:37:20;6.40;99.90
44855;DHT22;30591;48.228;16.398;2022-11-15T08:40:09;6.60;99.90
44855;DHT22;30591;48.228;16.398;2022-11-15T08:42:56;6.60;99.90
44855;DHT22;30591;48.228;16.398;2022-11-15T08:45:48;6.70;99.90
44855;DHT22;30591;48.228;16.398;2022-11-15T08:48:36;6.70;99.90
44855;DHT22;30591;48.228;16.398;2022-11-15T08:51:23;6.60;99.90
44855;DHT22;30591;48.228;16.398;2022-11-15T08:54:08;6.60;99.90
44855;DHT22;30591;48.228;16.398;2022-11-15T08:57:08;6.70;99.90
44855;DHT22;30591;48.228;16.398;2022-11-15T08:59:56;6.60;99.90
44855;DHT22;30591;48.228;16.398;2022-11-15T09:03:03;6.70;99.90
44855;DHT22;30591;48.228;16.398;2022-11-15T09:05:54;6.80;99.90
44855;DHT22;30591;48.228;16.398;2022-11-15T09:12:31;6.60;99.90
44855;DHT22;30591;48.228;16.398;2022-11-15T09:18:44;6.70;99.90
44855;DHT22;30591;48.228;16.398;2022-11-15T09:24:58;6.70;99.90
44855;DHT22;30591;48.228;16.398;2022-11-15T09:27:58;6.70;99.90
44855;DHT22;30591;48.228;16.398;2022-11-15T09:30:44;6.70;99.90
44855;DHT22;30591;48.228;16.398;2022-11-15T09:33:56;6.80;99.90
44855;DHT22;30591;48.228;16.398;2022-11-15T09:36:42;6.80;99.90
44855;DHT22;30591;48.228;16.398;2022-11-15T09:39:29;6.80;99.90
44855;DHT22;30591;48.228;16.398;2022-11-15T09:42:49;7.00;99.90
44855;DHT22;30591;48.228;16.398;2022-11-15T09:45:41;7.00;99.90
44855;DHT22;30591;48.228;16.398;2022-11-15T09:51:39;7.10;99.90
44855;DHT22;30591;48.228;16.398;2022-11-15T09:57:45;6.90;99.90
44855;DHT22;30591;48.228;16.398;2022-11-15T10:00:44;7.00;99.90
44855;DHT22;30591;48.228;16.398;2022-11-15T10:03:37;7.10;99.90
44855;DHT22;30591;48.228;16.398;2022-11-15T10:06:21;7.10;99.90
44855;DHT22;30591;48.228;16.398;2022-11-15T10:11:35;7.10;99.90
44855;DHT22;30591;48.228;16.398;2022-11-15T10:14:18;7.10;99.90
44855;DHT22;30591;48.228;16.398;2022-11-15T10:19:50;7.20;99.90
44855;DHT22;30591;48.228;16.398;2022-11-15T10:22:50;7.20;99.90
44855;DHT22;30591;48.228;16.398;2022-11-15T10:25:27;7.20;99.90
44855;DHT22;30591;48.228;16.398;2022-11-15T10:28:00;7.20;99.90
44855;DHT22;30591;48.228;16.398;2022-11-15T10:30:37;7.30;99.90
44855;DHT22;30591;48.228;16.398;2022-11-15T10:33:36;7.20;99.90
44855;DHT22;30591;48.228;16.398;2022-11-15T10:41:36;7.40;99.90
44855;DHT22;30591;48.228;16.398;2022-11-15T10:44:22;7.40;99.90
44855;DHT22;30591;48.228;16.398;2022-11-15T10:50:03;7.40;99.90
44855;DHT22;30591;48.228;16.398;2022-11-15T10:52:45;7.40;99.90
44855;DHT22;30591;48.228;16.398;2022-11-15T10:55:40;7.40;99.90
44855;DHT22;30591;48.228;16.398;2022-11-15T11:05:31;7.50;99.90
44855;DHT22;30591;48.228;16.398;2022-11-15T11:11:16;7.50;99.90
44855;DHT22;30591;48.228;16.398;2022-11-15T11:14:12;7.50;99.90
44855;DHT22;30591;48.228;16.398;2022-11-15T11:17:32;7.50;99.90
44855;DHT22;30591;48.228;16.398;2022-11-15T11:26:16;7.50;99.90
44855;DHT22;30591;48.228;16.398;2022-11-15T11:40:14;7.60;99.90
44855;DHT22;30591;48.228;16.398;2022-11-15T11:43:16;7.60;99.90
44855;DHT22;30591;48.228;16.398;2022-11-15T11:48:42;7.50;99.90
44855;DHT22;30591;48.228;16.398;2022-11-15T11:51:58;7.50;99.90
44855;DHT22;30591;48.228;16.398;2022-11-15T11:54:45;7.50;99.90
44855;DHT22;30591;48.228;16.398;2022-11-15T12:00:26;7.50;99.90
44855;DHT22;30591;48.228;16.398;2022-11-15T12:03:19;7.50;99.90
44855;DHT22;30591;48.228;16.398;2022-11-15T12:05:59;7.60;99.90
44855;DHT22;30591;48.228;16.398;2022-11-15T12:16:52;7.50;99.90
44855;DHT22;30591;48.228;16.398;2022-11-15T12:19:20;7.60;99.90
44855;DHT22;30591;48.228;16.398;2022-11-15T12:22:08;7.60;99.90
44855;DHT22;30591;48.228;16.398;2022-11-15T12:24:43;7.60;99.90
44855;DHT22;30591;48.228;16.398;2022-11-15T12:27:37;7.60;99.90
44855;DHT22;30591;48.228;16.398;2022-11-15T12:30:18;7.70;99.90
44855;DHT22;30591;48.228;16.398;2022-11-15T12:36:11;7.60;99.90
44855;DHT22;30591;48.228;16.398;2022-11-15T12:39:00;7.60;99.90
44855;DHT22;30591;48.228;16.398;2022-11-15T12:41:36;7.60;99.90
44855;DHT22;30591;48.228;16.398;2022-11-15T12:47:04;7.70;99.90
44855;DHT22;30591;48.228;16.398;2022-11-15T12:49:53;7.70;99.90
44855;DHT22;30591;48.228;16.398;2022-11-15T12:52:21;7.70;99.90
44855;DHT22;30591;48.228;16.398;2022-11-15T12:54:53;7.70;99.90
44855;DHT22;30591;48.228;16.398;2022-11-15T12:57:39;7.70;99.90
44855;DHT22;30591;48.228;16.398;2022-11-15T13:02:45;7.70;99.90
44855;DHT22;30591;48.228;16.398;2022-11-15T13:13:00;7.70;99.90
44855;DHT22;30591;48.228;16.398;2022-11-15T13:15:45;7.80;99.90
44855;DHT22;30591;48.228;16.398;2022-11-15T13:18:32;7.80;99.90
44855;DHT22;30591;48.228;16.398;2022-11-15T13:21:01;7.80;99.90
44855;DHT22;30591;48.228;16.398;2022-11-15T13:23:55;7.80;99.90
44855;DHT22;30591;48.228;16.398;2022-11-15T13:26:32;7.70;99.90
44855;DHT22;30591;48.228;16.398;2022-11-15T13:28:59;7.80;99.90
44855;DHT22;30591;48.228;16.398;2022-11-15T13:34:30;7.80;99.90
44855;DHT22;30591;48.228;16.398;2022-11-15T13:37:29;7.90;99.90
44855;DHT22;30591;48.228;16.398;2022-11-15T13:40:20;7.90;99.90
44855;DHT22;30591;48.228;16.398;2022-11-15T13:42:51;7.90;99.90
44855;DHT22;30591;48.228;16.398;2022-11-15T13:45:19;7.90;99.90
44855;DHT22;30591;48.228;16.398;2022-11-15T13:47:52;7.90;99.90
44855;DHT22;30591;48.228;16.398;2022-11-15T13:50:22;7.90;99.90
44855;DHT22;30591;48.228;16.398;2022-11-15T13:52:55;7.90;99.90
44855;DHT22;30591;48.228;16.398;2022-11-15T13:55:26;7.90;99.90
44855;DHT22;30591;48.228;16.398;2022-11-15T13:57:58;7.90;99.90
44855;DHT22;30591;48.228;16.398;2022-11-15T14:00:38;7.90;99.90
44855;DHT22;30591;48.228;16.398;2022-11-15T14:03:12;7.90;99.90
44855;DHT22;30591;48.228;16.398;2022-11-15T14:05:44;7.90;99.90
44855;DHT22;30591;48.228;16.398;2022-11-15T14:08:24;7.90;99.90
44855;DHT22;30591;48.228;16.398;2022-11-15T14:11:15;7.90;99.90
44855;DHT22;30591;48.228;16.398;2022-11-15T14:22:19;7.90;99.90
44855;DHT22;30591;48.228;16.398;2022-11-15T14:28:16;7.90;99.90
44855;DHT22;30591;48.228;16.398;2022-11-15T14:30:57;7.90;99.90
44855;DHT22;30591;48.228;16.398;2022-11-15T14:33:34;7.90;99.90
44855;DHT22;30591;48.228;16.398;2022-11-15T14:36:13;7.80;99.90
44855;DHT22;30591;48.228;16.398;2022-11-15T14:38:41;7.90;99.90
44855;DHT22;30591;48.228;16.398;2022-11-15T14:41:24;7.90;99.90
44855;DHT22;30591;48.228;16.398;2022-11-15T14:43:52;7.90;99.90
44855;DHT22;30591;48.228;16.398;2022-11-15T14:46:23;7.90;99.90
44855;DHT22;30591;48.228;16.398;2022-11-15T14:48:51;7.90;99.90
44855;DHT22;30591;48.228;16.398;2022-11-15T14:51:19;7.80;99.90
44855;DHT22;30591;48.228;16.398;2022-11-15T14:53:48;7.90;99.90
44855;DHT22;30591;48.228;16.398;2022-11-15T14:56:16;7.90;99.90
44855;DHT22;30591;48.228;16.398;2022-11-15T14:58:43;7.90;99.90
44855;DHT22;30591;48.228;16.398;2022-11-15T15:01:23;7.90;99.90
44855;DHT22;30591;48.228;16.398;2022-11-15T15:03:52;7.90;99.90
44855;DHT22;30591;48.228;16.398;2022-11-15T15:06:24;7.90;99.90
44855;DHT22;30591;48.228;16.398;2022-11-15T15:08:57;7.90;99.90
44855;DHT22;30591;48.228;16.398;2022-11-15T15:11:27;7.90;99.90
44855;DHT22;30591;48.228;16.398;2022-11-15T15:13:59;7.90;99.90
44855;DHT22;30591;48.228;16.398;2022-11-15T15:16:30;7.90;99.90
44855;DHT22;30591;48.228;16.398;2022-11-15T15:19:01;7.90;99.90
44855;DHT22;30591;48.228;16.398;2022-11-15T15:21:29;7.90;99.90
44855;DHT22;30591;48.228;16.398;2022-11-15T15:24:04;7.90;99.90
44855;DHT22;30591;48.228;16.398;2022-11-15T15:26:32;7.90;99.90
44855;DHT22;30591;48.228;16.398;2022-11-15T15:29:06;7.90;99.90
44855;DHT22;30591;48.228;16.398;2022-11-15T15:31:36;7.90;99.90
44855;DHT22;30591;48.228;16.398;2022-11-15T15:34:04;7.90;99.90
44855;DHT22;30591;48.228;16.398;2022-11-15T15:36:31;7.90;99.90
44855;DHT22;30591;48.228;16.398;2022-11-15T15:39:01;8.00;99.90
44855;DHT22;30591;48.228;16.398;2022-11-15T15:41:28;8.00;99.90
44855;DHT22;30591;48.228;16.398;2022-11-15T15:43:55;8.00;99.90
44855;DHT22;30591;48.228;16.398;2022-11-15T15:46:28;8.00;99.90
44855;DHT22;30591;48.228;16.398;2022-11-15T15:48:56;8.00;99.90
44855;DHT22;30591;48.228;16.398;2022-11-15T15:51:24;8.00;99.90
44855;DHT22;30591;48.228;16.398;2022-11-15T15:53:55;8.00;99.90
44855;DHT22;30591;48.228;16.398;2022-11-15T15:56:25;8.00;99.90
44855;DHT22;30591;48.228;16.398;2022-11-15T15:58:53;8.00;99.90
44855;DHT22;30591;48.228;16.398;2022-11-15T16:01:28;8.00;99.90
44855;DHT22;30591;48.228;16.398;2022-11-15T16:03:55;8.00;99.90
44855;DHT22;30591;48.228;16.398;2022-11-15T16:06:49;8.00;99.90
44855;DHT22;30591;48.228;16.398;2022-11-15T16:09:22;8.00;99.90
44855;DHT22;30591;48.228;16.398;2022-11-15T16:12:14;8.00;99.90
44855;DHT22;30591;48.228;16.398;2022-11-15T16:14:43;8.00;99.90
44855;DHT22;30591;48.228;16.398;2022-11-15T16:17:22;8.00;99.90
44855;DHT22;30591;48.228;16.398;2022-11-15T16:19:50;8.00;99.90
44855;DHT22;30591;48.228;16.398;2022-11-15T16:22:17;8.00;99.90
44855;DHT22;30591;48.228;16.398;2022-11-15T16:24:45;8.00;99.90
44855;DHT22;30591;48.228;16.398;2022-11-15T16:27:20;8.00;99.90
44855;DHT22;30591;48.228;16.398;2022-11-15T16:29:49;8.00;99.90
44855;DHT22;30591;48.228;16.398;2022-11-15T16:32:17;8.00;99.90
44855;DHT22;30591;48.228;16.398;2022-11-15T16:34:50;8.00;99.90
44855;DHT22;30591;48.228;16.398;2022-11-15T16:37:24;8.00;99.90
44855;DHT22;30591;48.228;16.398;2022-11-15T16:39:51;8.00;99.90
44855;DHT22;30591;48.228;16.398;2022-11-15T16:42:27;8.10;99.90
44855;DHT22;30591;48.228;16.398;2022-11-15T16:44:55;8.10;99.90
44855;DHT22;30591;48.228;16.398;2022-11-15T16:47:35;8.10;99.90
44855;DHT22;30591;48.228;16.398;2022-11-15T16:50:02;8.10;99.90
44855;DHT22;30591;48.228;16.398;2022-11-15T16:53:01;8.10;99.90
44855;DHT22;30591;48.228;16.398;2022-11-15T16:55:29;8.10;99.90
44855;DHT22;30591;48.228;16.398;2022-11-15T16:58:08;8.20;99.90
44855;DHT22;30591;48.228;16.398;2022-11-15T17:01:01;8.10;99.90
44855;DHT22;30591;48.228;16.398;2022-11-15T17:03:28;8.10;99.90
44855;DHT22;30591;48.228;16.398;2022-11-15T17:05:58;8.20;99.90
44855;DHT22;30591;48.228;16.398;2022-11-15T17:08:26;8.10;99.90
44855;DHT22;30591;48.228;16.398;2022-11-15T17:10:54;8.10;99.90
44855;DHT22;30591;48.228;16.398;2022-11-15T17:13:21;8.20;99.90
44855;DHT22;30591;48.228;16.398;2022-11-15T17:15:49;8.20;99.90
44855;DHT22;30591;48.228;16.398;2022-11-15T17:18:16;8.20;99.90
44855;DHT22;30591;48.228;16.398;2022-11-15T17:20:43;8.10;99.90
44855;DHT22;30591;48.228;16.398;2022-11-15T17:23:15;8.20;99.90
44855;DHT22;30591;48.228;16.398;2022-11-15T17:25:43;8.20;99.90
44855;DHT22;30591;48.228;16.398;2022-11-15T17:28:10;8.20;99.90
44855;DHT22;30591;48.228;16.398;2022-11-15T17:30:41;8.20;99.90
44855;DHT22;30591;48.228;16.398;2022-11-15T17:33:11;8.20;99.90
44855;DHT22;30591;48.228;16.398;2022-11-15T17:36:10;8.20;99.90
44855;DHT22;30591;48.228;16.398;2022-11-15T17:38:42;8.20;99.90
44855;DHT22;30591;48.228;16.398;2022-11-15T17:44:16;8.20;99.90
44855;DHT22;30591;48.228;16.398;2022-11-15T17:46:57;8.20;99.90
44855;DHT22;30591;48.228;16.398;2022-11-15T17:49:25;8.20;99.90
44855;DHT22;30591;48.228;16.398;2022-11-15T17:51:53;8.20;99.90
44855;DHT22;30591;48.228;16.398;2022-11-15T17:54:21;8.20;99.90
44855;DHT22;30591;48.228;16.398;2022-11-15T18:00:46;8.10;99.90
44855;DHT22;30591;48.228;16.398;2022-11-15T18:03:15;8.20;99.90
44855;DHT22;30591;48.228;16.398;2022-11-15T18:05:45;8.20;99.90
44855;DHT22;30591;48.228;16.398;2022-11-15T18:08:20;8.20;99.90
44855;DHT22;30591;48.228;16.398;2022-11-15T18:11:02;8.10;99.90
44855;DHT22;30591;48.228;16.398;2022-11-15T18:13:31;8.10;99.90
44855;DHT22;30591;48.228;16.398;2022-11-15T18:15:59;8.10;99.90
44855;DHT22;30591;48.228;16.398;2022-11-15T18:18:32;8.20;99.90
44855;DHT22;30591;48.228;16.398;2022-11-15T18:21:21;8.10;99.90
44855;DHT22;30591;48.228;16.398;2022-11-15T18:23:53;8.10;99.90
44855;DHT22;30591;48.228;16.398;2022-11-15T18:26:22;8.10;99.90
44855;DHT22;30591;48.228;16.398;2022-11-15T18:28:56;8.10;99.90
44855;DHT22;30591;48.228;16.398;2022-11-15T18:31:35;8.10;99.90
44855;DHT22;30591;48.228;16.398;2022-11-15T18:34:03;8.20;99.90
44855;DHT22;30591;48.228;16.398;2022-11-15T18:36:38;8.20;99.90
44855;DHT22;30591;48.228;16.398;2022-11-15T18:39:09;8.20;99.90
44855;DHT22;30591;48.228;16.398;2022-11-15T18:42:15;8.20;99.90
44855;DHT22;30591;48.228;16.398;2022-11-15T18:44:43;8.20;99.90
44855;DHT22;30591;48.228;16.398;2022-11-15T18:47:22;8.20;99.90
44855;DHT22;30591;48.228;16.398;2022-11-15T18:49:52;8.10;99.90
44855;DHT22;30591;48.228;16.398;2022-11-15T18:52:19;8.10;99.90
44855;DHT22;30591;48.228;16.398;2022-11-15T18:54:49;8.10;99.90
44855;DHT22;30591;48.228;16.398;2022-11-15T18:57:30;8.10;99.90
44855;DHT22;30591;48.228;16.398;2022-11-15T18:59:57;8.10;99.90
44855;DHT22;30591;48.228;16.398;2022-11-15T19:02:36;8.20;99.90
44855;DHT22;30591;48.228;16.398;2022-11-15T19:05:05;8.10;99.90
44855;DHT22;30591;48.228;16.398;2022-11-15T19:07:32;8.10;99.90
44855;DHT22;30591;48.228;16.398;2022-11-15T19:10:04;8.10;99.90
44855;DHT22;30591;48.228;16.398;2022-11-15T19:12:34;8.10;99.90
44855;DHT22;30591;48.228;16.398;2022-11-15T19:15:07;8.10;99.90
44855;DHT22;30591;48.228;16.398;2022-11-15T19:17:37;8.10;99.90
44855;DHT22;30591;48.228;16.398;2022-11-15T19:20:43;8.10;99.90
44855;DHT22;30591;48.228;16.398;2022-11-15T19:23:11;8.10;99.90
44855;DHT22;30591;48.228;16.398;2022-11-15T19:25:38;8.10;99.90
44855;DHT22;30591;48.228;16.398;2022-11-15T19:28:07;8.10;99.90
44855;DHT22;30591;48.228;16.398;2022-11-15T19:31:06;8.10;99.90
44855;DHT22;30591;48.228;16.398;2022-11-15T19:33:36;8.10;99.90
44855;DHT22;30591;48.228;16.398;2022-11-15T19:36:10;8.10;99.90
44855;DHT22;30591;48.228;16.398;2022-11-15T19:38:40;8.10;99.90
44855;DHT22;30591;48.228;16.398;2022-11-15T19:41:14;8.10;99.90
44855;DHT22;30591;48.228;16.398;2022-11-15T19:43:46;8.10;99.90
44855;DHT22;30591;48.228;16.398;2022-11-15T19:46:20;8.10;99.90
44855;DHT22;30591;48.228;16.398;2022-11-15T19:48:54;8.10;99.90
44855;DHT22;30591;48.228;16.398;2022-11-15T19:51:24;8.10;99.90
44855;DHT22;30591;48.228;16.398;2022-11-15T19:54:06;8.10;99.90
44855;DHT22;30591;48.228;16.398;2022-11-15T19:56:36;8.10;99.90
44855;DHT22;30591;48.228;16.398;2022-11-15T19:59:22;8.10;99.90
44855;DHT22;30591;48.228;16.398;2022-11-15T20:01:49;8.10;99.90
44855;DHT22;30591;48.228;16.398;2022-11-15T20:04:16;8.10;99.90
44855;DHT22;30591;48.228;16.398;2022-11-15T20:06:45;8.10;99.90